createdAt,value
2019-06-07T00:00:47.642Z,101082.08
2019-06-07T00:05:50.031Z,101073.20
2019-06-07T00:10:52.345Z,101070.86
2019-06-07T00:15:54.634Z,101079.73
2019-06-07T00:20:56.809Z,101066.97
2019-06-07T00:25:59.313Z,101075.00
2019-06-07T00:31:01.491Z,101071.19
2019-06-07T00:36:04.011Z,101079.17
2019-06-07T00:41:06.207Z,101078.47
2019-06-07T00:46:08.339Z,101066.42
2019-06-07T00:51:11.630Z,101060.45
2019-06-07T00:56:14.019Z,101061.08
2019-06-07T01:01:20.125Z,101057.03
2019-06-07T01:06:22.921Z,101067.44
2019-06-07T01:11:26.909Z,101062.59
2019-06-07T01:16:53.245Z,101072.22
2019-06-07T01:26:35.411Z,101075.48
2019-06-07T01:31:38.667Z,101087.27
2019-06-07T01:36:41.639Z,101077.53
2019-06-07T01:41:44.642Z,101080.33
2019-06-07T01:46:47.577Z,101071.23
2019-06-07T01:51:50.143Z,101069.02
2019-06-07T01:56:52.862Z,101080.73
2019-06-07T02:01:55.059Z,101062.91
2019-06-07T02:06:57.834Z,101064.69
2019-06-07T02:12:00.831Z,101080.56
2019-06-07T02:17:03.224Z,101091.46
2019-06-07T02:22:05.670Z,101098.92
2019-06-07T02:27:08.811Z,101086.92
2019-06-07T02:32:11.516Z,101103.95
2019-06-07T02:37:14.531Z,101103.51
2019-06-07T02:42:16.817Z,101099.72
2019-06-07T02:47:19.098Z,101097.84
2019-06-07T02:52:24.239Z,101085.69
2019-06-07T02:57:28.326Z,101085.28
2019-06-07T03:02:33.514Z,101084.00
2019-06-07T03:07:39.361Z,101098.98
2019-06-07T03:12:44.671Z,101105.46
2019-06-07T03:18:03.798Z,101100.95
2019-06-07T03:23:06.264Z,101114.37
2019-06-07T03:28:09.372Z,101127.84
2019-06-07T03:33:12.125Z,101125.87
2019-06-07T03:38:15.075Z,101125.87
2019-06-07T03:43:17.638Z,101129.21
2019-06-07T03:48:19.957Z,101131.58
2019-06-07T03:53:22.412Z,101132.98
2019-06-07T03:58:31.848Z,101145.29
2019-06-07T04:03:36.151Z,101159.27
2019-06-07T04:08:39.671Z,101156.77
2019-06-07T04:13:42.730Z,101158.17
2019-06-07T04:18:44.223Z,101162.50
2019-06-07T04:23:46.893Z,101152.61
2019-06-07T04:33:56.375Z,101166.14
2019-06-07T04:39:00.396Z,101170.55
2019-06-07T04:44:05.304Z,101167.56
2019-06-07T04:49:08.163Z,101163.51
2019-06-07T04:54:10.360Z,101150.48
2019-06-07T04:59:13.048Z,101147.26
2019-06-07T05:04:15.810Z,101137.78
2019-06-07T05:09:19.038Z,101136.36
2019-06-07T05:14:22.274Z,101142.75
2019-06-07T05:19:24.542Z,101141.32
2019-06-07T05:24:27.146Z,101156.70
2019-06-07T05:29:30.804Z,101164.06
2019-06-07T05:34:34.568Z,101161.76
2019-06-07T05:39:40.420Z,101159.88
2019-06-07T05:44:45.490Z,101164.34
2019-06-07T05:49:47.569Z,101161.72
2019-06-07T05:54:50.476Z,101163.15
2019-06-07T05:59:53.377Z,101160.72
2019-06-07T06:04:56.470Z,101155.59
2019-06-07T06:09:58.627Z,101161.77
2019-06-07T06:15:01.278Z,101159.24
2019-06-07T06:20:04.898Z,101164.03
2019-06-07T06:30:15.819Z,101160.96
2019-06-07T06:35:18.535Z,101168.21
2019-06-07T06:40:21.781Z,101164.29
2019-06-07T06:45:24.382Z,101167.22
2019-06-07T06:50:26.865Z,101168.52
2019-06-07T06:55:30.144Z,101168.99
2019-06-07T07:00:53.479Z,101167.20
2019-06-07T07:05:54.998Z,101168.89
2019-06-07T07:10:57.498Z,101162.87
2019-06-07T07:16:00.679Z,101163.47
2019-06-07T07:21:03.165Z,101159.40
2019-06-07T07:26:05.456Z,101156.14
2019-06-07T07:31:07.783Z,101156.14
2019-06-07T07:36:28.698Z,101150.52
2019-06-07T07:41:16.013Z,101146.78
2019-06-07T07:46:35.508Z,101152.52
2019-06-07T07:51:22.771Z,101151.59
2019-06-07T07:56:25.299Z,101157.15
2019-06-07T08:01:27.465Z,101140.27
2019-06-07T08:06:29.978Z,101142.34
2019-06-07T08:11:32.513Z,101141.84
2019-06-07T08:16:34.856Z,101125.99
2019-06-07T08:21:38.671Z,101132.56
2019-06-07T08:26:41.263Z,101133.13
2019-06-07T08:31:43.428Z,101140.69
2019-06-07T08:36:45.645Z,101133.73
2019-06-07T08:41:59.323Z,101138.00
2019-06-07T08:46:56.584Z,101141.91
2019-06-07T08:52:03.061Z,101145.01
2019-06-07T08:57:17.585Z,101137.27
2019-06-07T09:02:20.949Z,101136.22
2019-06-07T09:07:19.191Z,101137.05
2019-06-07T09:12:14.523Z,101127.84
2019-06-07T09:17:17.418Z,101131.98
2019-06-07T09:22:19.902Z,101121.49
2019-06-07T09:27:22.552Z,101118.91
2019-06-07T09:32:25.601Z,101115.51
2019-06-07T09:42:32.429Z,101101.54
2019-06-07T09:47:34.686Z,101115.62
2019-06-07T09:52:57.195Z,101101.70
2019-06-07T09:57:41.980Z,101103.04
2019-06-07T10:02:44.280Z,101105.34
2019-06-07T10:08:02.611Z,101106.03
2019-06-07T10:12:51.628Z,101099.47
2019-06-07T10:17:54.487Z,101089.40
2019-06-07T10:22:56.783Z,101099.09
2019-06-07T10:28:00.036Z,101094.28
2019-06-07T10:33:04.670Z,101083.52
2019-06-07T10:38:06.873Z,101079.52
2019-06-07T10:43:12.609Z,101083.02
2019-06-07T10:48:13.944Z,101072.09
2019-06-07T10:53:16.475Z,101065.53
2019-06-07T10:58:19.871Z,101060.59
2019-06-07T11:03:22.395Z,101058.36
2019-06-07T11:08:24.821Z,101050.47
2019-06-07T11:13:27.603Z,101065.56
2019-06-07T11:18:29.979Z,101053.16
2019-06-07T11:23:32.529Z,101049.48
2019-06-07T11:28:34.976Z,101042.68
2019-06-07T11:33:37.322Z,101037.93
2019-06-07T11:38:40.103Z,101036.28
2019-06-07T11:43:42.315Z,101024.66
2019-06-07T11:48:44.564Z,101032.53
2019-06-07T11:53:47.097Z,101032.71
2019-06-07T11:58:49.718Z,101021.06
2019-06-07T12:03:52.787Z,101022.03
2019-06-07T12:08:55.277Z,101003.06
2019-06-07T12:13:58.087Z,101001.91
2019-06-07T12:19:00.690Z,100998.32
2019-06-07T12:24:03.469Z,100993.37
2019-06-07T12:29:06.111Z,100987.08
2019-06-07T12:34:09.496Z,100990.31
2019-06-07T12:39:12.341Z,100992.44
2019-06-07T12:44:16.593Z,100983.91
2019-06-07T12:49:19.216Z,100972.76
2019-06-07T12:54:23.835Z,100969.20
2019-06-07T12:59:26.297Z,100970.77
2019-06-07T13:04:28.851Z,100975.98
2019-06-07T13:09:31.285Z,100958.65
2019-06-07T13:14:33.785Z,100954.91
2019-06-07T13:19:36.686Z,100956.48
2019-06-07T13:24:38.879Z,100938.80
2019-06-07T13:29:41.390Z,100943.02
2019-06-07T13:34:43.581Z,100925.79
2019-06-07T13:39:46.095Z,100928.86
2019-06-07T13:44:49.635Z,100904.94
2019-06-07T13:49:55.284Z,100912.26
2019-06-07T13:54:57.316Z,100905.61
2019-06-07T14:00:00.344Z,100898.12
2019-06-07T14:05:03.956Z,100882.62
2019-06-07T14:10:06.941Z,100880.66
2019-06-07T14:15:11.929Z,100874.77
2019-06-07T14:20:15.293Z,100874.23
2019-06-07T14:25:18.535Z,100865.67
2019-06-07T14:30:21.835Z,100862.90
2019-06-07T14:35:24.518Z,100849.70
2019-06-07T14:40:27.931Z,100848.07
2019-06-07T14:45:32.608Z,100849.41
2019-06-07T14:50:34.878Z,100840.87
2019-06-07T14:55:37.410Z,100845.07
2019-06-07T15:00:42.188Z,100836.00
2019-06-07T15:05:45.145Z,100840.84
2019-06-07T15:10:48.252Z,100836.55
2019-06-07T15:15:50.656Z,100835.88
2019-06-07T15:20:52.962Z,100824.52
2019-06-07T15:25:55.165Z,100817.01
2019-06-07T15:30:57.612Z,100821.59
2019-06-07T15:36:00.182Z,100811.02
2019-06-07T15:41:02.366Z,100808.55
2019-06-07T15:46:04.550Z,100803.80
2019-06-07T15:51:06.721Z,100810.00
2019-06-07T15:56:09.541Z,100810.30
2019-06-07T16:01:12.452Z,100807.60
2019-06-07T16:06:15.125Z,100806.36
2019-06-07T16:11:17.286Z,100816.17
2019-06-07T16:16:19.846Z,100807.80
2019-06-07T16:21:22.123Z,100814.41
2019-06-07T16:26:24.890Z,100805.95
2019-06-07T16:31:27.400Z,100797.20
2019-06-07T16:36:29.571Z,100801.34
2019-06-07T16:41:32.201Z,100795.08
2019-06-07T16:46:34.398Z,100774.29
2019-06-07T16:51:37.241Z,100770.91
2019-06-07T16:56:45.403Z,100770.89
2019-06-07T17:01:43.697Z,100766.78
2019-06-07T17:06:46.507Z,100774.30
2019-06-07T17:11:49.217Z,100789.72
2019-06-07T17:16:51.727Z,100786.02
2019-06-07T17:21:54.077Z,100780.97
2019-06-07T17:26:56.966Z,100785.70
2019-06-07T17:31:59.674Z,100764.22
2019-06-07T17:37:02.491Z,100765.39
2019-06-07T17:42:05.057Z,100771.86
2019-06-07T17:47:07.712Z,100772.87
2019-06-07T17:52:10.564Z,100774.50
2019-06-07T17:57:13.044Z,100764.73
2019-06-07T18:02:15.911Z,100768.33
2019-06-07T18:07:20.819Z,100766.33
2019-06-07T18:12:24.296Z,100754.53
2019-06-07T18:17:34.425Z,100746.30
2019-06-07T18:22:32.382Z,100755.14
2019-06-07T18:27:35.271Z,100749.37
2019-06-07T18:32:37.787Z,100751.11
2019-06-07T18:37:40.109Z,100744.84
2019-06-07T18:42:44.058Z,100739.66
2019-06-07T18:47:47.838Z,100732.89
2019-06-07T18:52:50.901Z,100731.96
2019-06-07T18:57:54.504Z,100733.76
2019-06-07T19:02:58.086Z,100737.52
2019-06-07T19:08:00.814Z,100729.97
2019-06-07T19:13:04.043Z,100727.28
2019-06-07T19:18:07.210Z,100724.27
2019-06-07T19:23:09.772Z,100688.39
2019-06-07T19:28:13.098Z,100689.38
2019-06-07T19:33:15.608Z,100700.88
2019-06-07T19:38:18.555Z,100702.38
2019-06-07T19:43:21.693Z,100705.45
2019-06-07T19:48:24.542Z,100720.06
2019-06-07T19:53:27.783Z,100707.61
2019-06-07T19:58:30.765Z,100724.70
2019-06-07T20:03:34.055Z,100728.34
2019-06-07T20:08:42.180Z,100728.48
2019-06-07T20:13:45.412Z,100732.78
2019-06-07T20:18:48.342Z,100736.52
2019-06-07T20:23:51.977Z,100741.78
2019-06-07T20:28:55.156Z,100740.76
2019-06-07T20:33:58.693Z,100748.59
2019-06-07T20:39:02.205Z,100771.33
2019-06-07T20:44:08.112Z,100767.62
2019-06-07T20:49:11.422Z,100754.28
2019-06-07T20:54:15.194Z,100761.84
2019-06-07T20:59:19.026Z,100768.77
2019-06-07T21:04:23.388Z,100761.11
2019-06-07T21:09:27.107Z,100775.87
2019-06-07T21:14:30.327Z,100769.00
2019-06-07T21:19:33.368Z,100776.23
2019-06-07T21:24:36.109Z,100767.97
2019-06-07T21:29:38.538Z,100764.20
2019-06-07T21:34:41.181Z,100764.78
2019-06-07T21:39:44.472Z,100783.05
2019-06-07T21:44:47.731Z,100779.94
2019-06-07T21:49:50.176Z,100783.70
2019-06-07T21:54:53.035Z,100785.89
2019-06-07T21:59:55.271Z,100788.25
2019-06-07T22:04:57.717Z,100798.44
2019-06-07T22:10:00.214Z,100803.28
2019-06-07T22:15:17.129Z,100810.25
2019-06-07T22:20:08.637Z,100818.14
2019-06-07T22:25:11.224Z,100818.83
2019-06-07T22:30:14.555Z,100830.76
2019-06-07T22:35:16.843Z,100817.55
2019-06-07T22:40:19.868Z,100820.52
2019-06-07T22:45:22.173Z,100811.62
2019-06-07T22:50:25.312Z,100803.37
2019-06-07T22:55:27.641Z,100800.08
2019-06-07T23:00:32.026Z,100791.15
2019-06-07T23:05:34.212Z,100792.66
2019-06-07T23:10:36.413Z,100786.55
2019-06-07T23:15:38.591Z,100791.53
2019-06-07T23:20:40.748Z,100791.09
2019-06-07T23:25:42.891Z,100793.78
2019-06-07T23:30:45.056Z,100797.90
2019-06-07T23:35:47.891Z,100789.13
2019-06-07T23:40:50.326Z,100785.66
2019-06-07T23:45:53.195Z,100776.72
2019-06-07T23:50:55.507Z,100786.83
2019-06-07T23:55:59.542Z,100778.38
